Impacts TAF Board
For situational awareness. Not to be used for flight planning purposes.
IDs:

KSLC - Salt Lake City Intl, UT, US

Issued at 1500 UTC 16 Feb 2019
Updated at 1502 UTC 16 Feb 2019
Potential Impact None Slight Moderate High
Time1454Z 16/16Z 16/17Z 16/18Z 16/19Z 16/20Z 16/21Z 16/22Z 16/23Z 17/00Z 17/01Z 17/02Z 17/03Z 17/04Z>>
Type OBS PRVL PRVL PRVL PRVL PRVL PRVL PRVL PRVL PRVL PRVL PRVL PRVL PRVL
VIS 10 >6 >6 >6 >6 >6 >6 >6 >6 >6 >6 >6 >6 >6
CIG 90 80 80 80 80 80 80 80 80 80 80 40 40 40
Cover BKN BKN BKN BKN BKN BKN BKN BKN BKN BKN BKN OVC OVC OVC
FltCat VFR VFR VFR VFR VFR VFR VFR VFR VFR VFR VFR VFR VFR VFR
WX -- VCSH -- -- -- -- -- -- -- -- -- VCSH VCSH VCSH
WDir 310 300 290 290 290 290 290 290 290 290 290 150 150 150
WSpd 8 9 8 8 8 8 8 8 8 8 8 6 6 6
WGst -- -- -- -- -- -- -- -- -- -- -- -- -- --
Raw TAF
KSLC 161500Z 1615/1718 30009KT P6SM VCSH SCT050 BKN080
  FM161700 29008KT P6SM SCT060 BKN080
  FM170200 15006KT P6SM VCSH SCT025 OVC040
  FM170600 13006KT P6SM BKN080 BKN120


Raw METAR
KSLC 161454Z 31008KT 10SM FEW040 SCT070 BKN090 M01/M06 A2984 RMK AO2 SLP116 SH DSNT SE AND SW T10111056 51016
KSLC 161354Z 31007KT 10SM SCT028 BKN036 BKN070 M01/M04 A2983 RMK AO2 SLP112 T10111044
KSLC 161254Z 29007KT 10SM FEW034 SCT050 BKN080 M01/M04 A2981 RMK AO2 SLP103 T10061044

METAR Board
Radar Display
Forecast Discussion
For situational awareness. Not to be used for flight planning purposes.